Time;durP1;ratioP1;P1;durP2;ratioP2;P2;SDS_P1;SDS_P2;PMS_P1;PMS_P2;Temp;Humidity;BMP_temperature;BMP_pressure;BME280_temperature;BME280_humidity;BME280_pressure;Samples;Min_cycle;Max_cycle;Signal;HPM_P1;HPM_P2
2021/08/28 00:01:30;;;;;;;1.80;1.70;;;;;;;15.73;70.45;100696.66;5023290;28;20079;-48
2021/08/28 00:03:55;;;;;;;1.80;1.48;;;;;;;15.73;70.46;100697.53;5024471;28;20504;-48
2021/08/28 00:06:21;;;;;;;2.67;1.40;;;;;;;15.71;70.47;100694.03;5024375;28;20072;-48
2021/08/28 00:08:47;;;;;;;1.15;1.08;;;;;;;15.72;70.44;100690.50;5023953;28;20032;-48
2021/08/28 00:11:12;;;;;;;2.55;1.48;;;;;;;15.74;70.53;100687.78;5022231;28;20026;-48
2021/08/28 00:13:39;;;;;;;3.60;1.80;;;;;;;15.72;70.50;100685.16;5024927;28;20029;-48
2021/08/28 00:16:05;;;;;;;2.22;1.40;;;;;;;15.71;70.37;100683.41;5027004;28;20113;-48
2021/08/28 00:18:31;;;;;;;1.92;1.60;;;;;;;15.70;70.47;100684.34;5025590;28;20301;-48
2021/08/28 00:20:57;;;;;;;1.45;1.35;;;;;;;15.70;70.40;100681.69;5002725;28;20017;-48
2021/08/28 00:23:23;;;;;;;1.70;1.52;;;;;;;15.70;70.52;100680.81;5015626;28;20101;-48
2021/08/28 00:25:48;;;;;;;1.25;1.15;;;;;;;15.70;70.45;100689.66;5022011;28;20397;-48
2021/08/28 00:28:14;;;;;;;1.13;1.13;;;;;;;15.70;70.56;100687.00;5025621;28;20036;-48
2021/08/28 00:30:40;;;;;;;1.65;1.30;;;;;;;15.69;70.43;100690.56;5009074;28;20398;-48
2021/08/28 00:33:10;;;;;;;1.23;1.15;;;;;;;15.68;70.52;100682.66;5022584;28;20030;-48
2021/08/28 00:35:36;;;;;;;1.63;1.10;;;;;;;15.69;70.33;100679.06;5025437;28;20073;-48
2021/08/28 00:38:02;;;;;;;1.60;1.30;;;;;;;15.68;70.48;100675.56;5005681;28;20080;-48
2021/08/28 00:40:28;;;;;;;1.77;1.40;;;;;;;15.69;70.44;100682.59;5020842;28;20439;-49
2021/08/28 00:42:53;;;;;;;1.50;1.40;;;;;;;15.68;70.58;100678.22;5029455;28;20018;-49
2021/08/28 00:45:26;;;;;;;4.78;1.30;;;;;;;15.68;70.71;100678.22;5019054;28;20036;-49
2021/08/28 00:47:57;;;;;;;1.50;1.30;;;;;;;15.65;70.54;100672.97;5029088;28;20032;-48
2021/08/28 00:50:24;;;;;;;1.52;1.42;;;;;;;15.69;70.59;100679.06;5025098;28;20043;-49
2021/08/28 00:52:51;;;;;;;1.60;1.50;;;;;;;15.67;70.47;100676.44;5026547;28;20040;-49
2021/08/28 00:55:17;;;;;;;1.67;1.58;;;;;;;15.67;70.64;100676.44;5025076;28;20122;-48
2021/08/28 00:57:43;;;;;;;1.50;1.40;;;;;;;15.66;70.57;100674.72;5027370;28;20069;-48
2021/08/28 01:00:09;;;;;;;1.65;1.23;;;;;;;15.67;70.44;100678.25;5030858;28;20029;-48
2021/08/28 01:02:37;;;;;;;1.88;1.65;;;;;;;15.67;70.42;100681.75;5030456;28;20098;-49
2021/08/28 01:05:53;;;;;;;1.40;1.30;;;;;;;15.68;70.46;100680.00;5014609;28;20033;-48
2021/08/28 01:08:45;;;;;;;1.40;1.30;;;;;;;15.65;70.26;100689.78;4979815;28;20092;-49
2021/08/28 01:11:12;;;;;;;;;;;;;;;15.66;70.46;100680.03;5028519;28;20038;-49
2021/08/28 01:13:39;;;;;;;1.50;1.40;;;;;;;15.63;70.41;100688.09;5021743;28;19963;-49
2021/08/28 01:16:06;;;;;;;1.50;1.40;;;;;;;15.62;70.65;100695.22;4998484;28;20037;-49
2021/08/28 01:18:33;;;;;;;1.25;1.20;;;;;;;15.60;70.60;100694.38;5012998;28;20407;-49
2021/08/28 01:21:28;;;;;;;2.55;1.70;;;;;;;15.60;70.54;100698.81;5014244;28;20018;-49
2021/08/28 01:23:57;;;;;;;2.05;1.33;;;;;;;15.62;70.43;100694.34;5028313;28;20045;-49
2021/08/28 01:26:24;;;;;;;1.80;1.65;;;;;;;15.60;70.57;100698.81;5008550;28;20033;-49
2021/08/28 01:29:03;;;;;;;1.75;1.40;;;;;;;15.62;70.63;100708.50;5014283;28;20033;-49
2021/08/28 01:31:31;;;;;;;1.70;1.60;;;;;;;15.61;70.61;100705.91;5007198;28;20375;-49
2021/08/28 01:33:56;;;;;;;1.45;1.30;;;;;;;15.62;70.62;100707.63;5011019;28;20202;-49
2021/08/28 01:36:22;;;;;;;1.50;1.40;;;;;;;15.60;70.62;100706.78;5001096;28;20495;-49
2021/08/28 01:38:49;;;;;;;1.40;1.30;;;;;;;15.58;70.68;100703.31;4996585;28;20025;-48
2021/08/28 01:41:15;;;;;;;1.77;1.67;;;;;;;15.60;70.56;100712.09;5013279;28;20376;-48
2021/08/28 01:43:41;;;;;;;1.83;1.60;;;;;;;15.61;70.60;100709.41;5027869;28;20480;-48
2021/08/28 01:46:07;;;;;;;1.50;1.40;;;;;;;15.57;70.81;100717.53;5013920;28;20172;-48
2021/08/28 01:48:32;;;;;;;1.67;1.13;;;;;;;15.60;70.32;100712.09;5021943;28;20528;-49
2021/08/28 01:50:59;;;;;;;2.28;1.35;;;;;;;15.59;70.47;100705.06;5018848;28;20481;-48
2021/08/28 01:53:27;;;;;;;1.13;1.10;;;;;;;15.57;70.70;100715.72;5026965;28;20025;-47
2021/08/28 01:55:53;;;;;;;1.60;1.50;;;;;;;15.59;70.44;100711.25;5025450;28;20017;-49
2021/08/28 01:58:18;;;;;;;1.48;1.38;;;;;;;15.58;70.50;100711.28;5006236;28;20401;-48
2021/08/28 02:00:44;;;;;;;2.05;1.45;;;;;;;15.56;70.54;100710.44;5027660;28;20009;-47
2021/08/28 02:03:10;;;;;;;1.38;1.27;;;;;;;15.58;70.47;100713.94;5024714;28;20076;-49
2021/08/28 02:05:41;;;;;;;1.20;1.10;;;;;;;15.56;70.52;100716.66;5028438;28;20036;-49
2021/08/28 02:08:13;;;;;;;1.40;1.30;;;;;;;15.57;70.51;100715.72;5004573;28;20112;-49
2021/08/28 02:10:51;;;;;;;2.63;1.77;;;;;;;15.54;70.71;100717.63;5029248;28;20522;-49
2021/08/28 02:13:44;;;;;;;1.27;1.25;;;;;;;15.57;70.56;100722.84;5004922;28;20026;-49
2021/08/28 02:16:11;;;;;;;1.88;1.42;;;;;;;15.53;70.61;100722.06;5027904;28;20067;-49
2021/08/28 02:18:53;;;;;;;1.42;1.33;;;;;;;15.52;70.62;100723.84;5010816;28;20432;-49
2021/08/28 02:21:20;;;;;;;1.45;1.30;;;;;;;15.55;70.41;100724.66;5025967;28;20025;-49
2021/08/28 02:23:58;;;;;;;1.65;1.55;;;;;;;15.54;70.59;100722.94;5005768;28;20426;-48
2021/08/28 02:26:26;;;;;;;1.77;1.55;;;;;;;15.54;70.41;100725.59;5007202;28;20130;-49
2021/08/28 02:28:56;;;;;;;1.88;1.42;;;;;;;15.52;70.65;100726.53;5010300;28;20029;-49
2021/08/28 02:31:24;;;;;;;1.40;1.30;;;;;;;15.54;70.49;100725.59;5030655;28;20025;-49
2021/08/28 02:33:51;;;;;;;1.40;1.30;;;;;;;15.54;70.51;100725.59;5006601;28;20025;-49
2021/08/28 02:36:18;;;;;;;2.20;1.52;;;;;;;15.51;70.58;100719.44;5003181;28;20022;-49
2021/08/28 02:38:46;;;;;;;1.52;1.40;;;;;;;15.52;70.49;100723.84;5011505;28;20025;-49
2021/08/28 02:41:12;;;;;;;1.38;1.27;;;;;;;15.51;70.46;100718.59;5026377;28;20500;-49
2021/08/28 02:43:40;;;;;;;1.25;1.23;;;;;;;15.51;70.58;100726.56;5005478;28;20029;-49
2021/08/28 02:46:06;;;;;;;1.55;1.45;;;;;;;15.48;70.42;100716.84;5009883;28;20056;-49
2021/08/28 02:48:34;;;;;;;1.27;1.17;;;;;;;15.48;70.77;100714.19;5017738;28;20030;-49
2021/08/28 02:51:02;;;;;;;1.30;1.17;;;;;;;15.50;70.59;100728.34;5027908;28;20029;-49
2021/08/28 02:53:29;;;;;;;1.42;1.33;;;;;;;15.50;70.39;100722.13;5022908;28;20032;-49
2021/08/28 02:55:55;;;;;;;1.52;1.42;;;;;;;15.49;70.55;100717.75;5003538;28;20025;-49
2021/08/28 02:58:22;;;;;;;2.70;1.60;;;;;;;15.48;70.48;100732.81;5005519;28;20389;-49
2021/08/28 03:00:48;;;;;;;1.80;1.70;;;;;;;15.49;70.58;100721.28;5029255;28;20028;-49
2021/08/28 03:03:16;;;;;;;1.58;1.48;;;;;;;15.49;70.41;100723.06;5007198;28;20037;-49
2021/08/28 03:05:46;;;;;;;1.52;1.42;;;;;;;15.50;70.33;100728.34;5027629;28;20033;-49
2021/08/28 03:08:13;;;;;;;1.77;1.67;;;;;;;15.49;70.48;100729.25;5016736;28;20489;-49
2021/08/28 03:10:39;;;;;;;2.17;1.40;;;;;;;15.48;70.48;100727.50;5028432;28;20360;-49
2021/08/28 03:13:05;;;;;;;2.45;1.50;;;;;;;15.48;70.50;100727.50;5010453;28;20451;-49
2021/08/28 03:15:31;;;;;;;1.77;1.55;;;;;;;15.47;70.39;100728.41;5012189;28;20014;-49
2021/08/28 03:17:57;;;;;;;1.60;1.50;;;;;;;15.46;70.58;100726.69;5027537;28;20118;-49
2021/08/28 03:20:23;;;;;;;1.95;1.80;;;;;;;15.46;70.46;100716.06;5002921;28;20113;-49
2021/08/28 03:22:50;;;;;;;1.73;1.63;;;;;;;15.45;70.56;100718.75;5004571;28;20022;-49
2021/08/28 03:25:17;;;;;;;1.63;1.02;;;;;;;15.46;70.50;100721.38;5008840;28;20025;-49
2021/08/28 03:27:43;;;;;;;1.40;1.30;;;;;;;15.46;70.51;100721.38;5011480;28;20052;-49
2021/08/28 03:30:12;;;;;;;1.80;1.45;;;;;;;15.46;70.61;100721.38;5002898;28;20029;-49
2021/08/28 03:32:38;;;;;;;1.35;1.25;;;;;;;15.45;70.43;100716.97;5029919;28;20025;-49
2021/08/28 03:35:04;;;;;;;1.63;1.52;;;;;;;15.43;70.65;100709.94;5011563;28;20075;-49
2021/08/28 03:37:32;;;;;;;1.55;1.45;;;;;;;15.45;70.55;100718.75;5016517;28;20033;-49
2021/08/28 03:39:58;;;;;;;1.27;1.20;;;;;;;15.45;70.62;100724.94;5027170;28;20033;-49
2021/08/28 03:42:24;;;;;;;1.88;1.45;;;;;;;15.46;70.50;100715.16;5011276;28;20021;-49
2021/08/28 03:44:50;;;;;;;1.50;1.40;;;;;;;15.45;70.48;100713.44;5007599;28;20017;-49
2021/08/28 03:47:16;;;;;;;6.70;1.63;;;;;;;15.44;70.53;100711.69;5026658;28;20074;-49
2021/08/28 03:49:42;;;;;;;1.52;1.42;;;;;;;15.41;70.67;100715.31;5024858;28;20107;-49
2021/08/28 03:52:08;;;;;;;1.80;1.65;;;;;;;15.41;70.55;100717.97;5025105;28;20112;-49
2021/08/28 03:54:34;;;;;;;1.73;1.63;;;;;;;15.42;70.56;100718.84;5025806;28;20133;-48
2021/08/28 03:57:00;;;;;;;1.88;1.40;;;;;;;15.42;70.49;100729.47;5022466;28;21088;-48
2021/08/28 03:59:26;;;;;;;1.70;1.60;;;;;;;15.41;70.41;100728.63;5025517;28;20034;-48
2021/08/28 04:01:52;;;;;;;1.70;1.60;;;;;;;15.43;70.57;100725.88;5027899;28;20017;-48
2021/08/28 04:04:17;;;;;;;2.45;1.60;;;;;;;15.42;70.52;100716.19;5024524;28;20041;-48
2021/08/28 04:06:43;;;;;;;2.17;1.65;;;;;;;15.41;70.54;100723.28;5023930;28;20064;-48
2021/08/28 04:09:09;;;;;;;2.53;1.85;;;;;;;15.42;70.70;100718.84;5027281;28;20033;-48
2021/08/28 04:11:35;;;;;;;1.60;1.50;;;;;;;15.41;70.67;100722.41;5024510;28;20392;-49
2021/08/28 04:14:01;;;;;;;1.80;1.65;;;;;;;15.39;70.55;100720.69;5023421;28;20018;-49
2021/08/28 04:16:26;;;;;;;1.80;1.70;;;;;;;15.41;70.61;100725.97;5026498;28;20080;-49
2021/08/28 04:18:52;;;;;;;1.55;1.45;;;;;;;15.39;70.60;100723.34;5026723;28;20032;-48
2021/08/28 04:21:18;;;;;;;2.70;2.10;;;;;;;15.40;70.61;100734.81;5024034;28;20017;-48
2021/08/28 04:23:44;;;;;;;1.60;1.50;;;;;;;15.40;70.73;100737.47;5025779;28;20017;-49
2021/08/28 04:26:10;;;;;;;1.88;1.70;;;;;;;15.39;70.72;100727.78;5021986;28;20029;-49
2021/08/28 04:28:35;;;;;;;1.70;1.60;;;;;;;15.40;70.54;100726.84;5027808;28;20025;-49
2021/08/28 04:31:01;;;;;;;2.45;1.80;;;;;;;15.37;70.68;100727.81;5015267;28;20087;-49
2021/08/28 04:33:27;;;;;;;6.78;1.80;;;;;;;15.39;70.61;100726.00;5010372;28;20022;-49
2021/08/28 04:35:53;;;;;;;2.00;1.80;;;;;;;15.37;70.55;100724.28;5027508;28;20444;-49
2021/08/28 04:38:19;;;;;;;2.00;1.90;;;;;;;15.37;70.62;100726.94;5029335;28;20026;-49
2021/08/28 04:40:44;;;;;;;2.00;1.90;;;;;;;15.37;70.67;100729.59;5030250;28;20053;-49
2021/08/28 04:43:10;;;;;;;2.25;1.70;;;;;;;15.35;70.79;100734.09;5027483;28;20113;-49
2021/08/28 04:45:36;;;;;;;1.90;1.60;;;;;;;15.33;70.97;100733.25;5025917;28;20017;-49
2021/08/28 04:48:02;;;;;;;2.60;1.70;;;;;;;15.34;70.74;100733.22;5024605;28;20124;-49
2021/08/28 04:50:28;;;;;;;2.22;2.05;;;;;;;15.34;70.71;100732.34;5029305;28;20026;-49
2021/08/28 04:52:53;;;;;;;3.10;2.10;;;;;;;15.36;70.70;100746.44;5029847;28;20025;-49
2021/08/28 04:55:19;;;;;;;2.78;1.73;;;;;;;15.36;70.50;100746.44;5023559;28;20025;-49
2021/08/28 04:57:45;;;;;;;2.30;2.10;;;;;;;15.34;70.65;100745.63;5029013;28;20547;-49
2021/08/28 05:00:11;;;;;;;2.40;1.98;;;;;;;15.35;70.78;100744.72;5027730;28;20029;-49
2021/08/28 05:02:37;;;;;;;2.08;1.98;;;;;;;15.35;70.65;100744.72;5026671;28;20028;-49
2021/08/28 05:05:04;;;;;;;1.98;1.88;;;;;;;15.35;70.88;100747.38;5023065;28;20022;-49
2021/08/28 05:07:30;;;;;;;3.20;2.00;;;;;;;15.34;70.69;100745.63;5005986;28;20029;-49
2021/08/28 05:09:56;;;;;;;1.83;1.73;;;;;;;15.35;70.77;100744.72;5002667;28;20022;-49
2021/08/28 05:12:22;;;;;;;3.10;1.95;;;;;;;15.32;70.83;100750.13;5029392;28;20018;-49
2021/08/28 05:14:49;;;;;;;2.40;2.20;;;;;;;15.32;70.82;100758.97;5029573;28;20485;-49
2021/08/28 05:17:15;;;;;;;2.03;1.92;;;;;;;15.34;70.76;100753.63;5024894;28;20021;-49
2021/08/28 05:19:41;;;;;;;1.88;1.73;;;;;;;15.33;70.74;100749.19;5004645;28;20045;-49
2021/08/28 05:22:07;;;;;;;2.88;1.98;;;;;;;15.33;70.68;100746.53;5029361;28;20060;-49
2021/08/28 05:24:35;;;;;;;2.35;2.10;;;;;;;15.31;70.75;100746.56;5027495;28;20527;-49
2021/08/28 05:27:02;;;;;;;2.38;2.17;;;;;;;15.31;70.78;100745.72;5025536;28;21787;-49
2021/08/28 05:29:28;;;;;;;3.58;2.40;;;;;;;15.32;70.86;100750.13;4988002;28;20026;-49
2021/08/28 05:31:54;;;;;;;2.58;2.38;;;;;;;15.30;70.90;100747.50;5026656;28;20541;-49
2021/08/28 05:34:20;;;;;;;2.95;2.75;;;;;;;15.28;70.93;100749.34;5024351;28;20041;-49
2021/08/28 05:36:46;;;;;;;3.65;1.95;;;;;;;15.29;70.84;100752.84;5024302;28;20079;-49
2021/08/28 05:39:11;;;;;;;2.67;2.47;;;;;;;15.29;70.97;100760.81;5026743;28;20026;-49
2021/08/28 05:41:38;;;;;;;3.15;2.95;;;;;;;15.30;70.86;100763.44;5028314;28;20113;-49
2021/08/28 05:44:04;;;;;;;2.90;2.70;;;;;;;15.30;70.82;100762.59;5004182;28;21599;-49
2021/08/28 05:46:30;;;;;;;2.90;2.70;;;;;;;15.27;70.79;100763.50;5007150;28;20022;-49
2021/08/28 05:48:56;;;;;;;2.55;2.30;;;;;;;15.29;71.00;100774.09;5020012;28;20104;-49
2021/08/28 05:51:22;;;;;;;2.83;2.63;;;;;;;15.28;70.89;100778.56;5031402;28;20021;-49
2021/08/28 05:53:48;;;;;;;2.83;2.63;;;;;;;15.28;70.90;100770.59;5028735;28;20025;-49
2021/08/28 05:56:13;;;;;;;3.67;2.67;;;;;;;15.30;70.80;100778.53;5026661;28;20032;-49
2021/08/28 05:58:39;;;;;;;3.47;3.17;;;;;;;15.29;70.81;100779.41;5028291;28;20025;-49
2021/08/28 06:01:05;;;;;;;3.20;3.00;;;;;;;15.30;71.06;100781.19;5028834;28;20110;-49
2021/08/28 06:03:31;;;;;;;3.78;3.47;;;;;;;15.30;70.81;100775.88;5031750;28;20029;-49
2021/08/28 06:05:57;;;;;;;4.63;3.38;;;;;;;15.26;71.16;100773.28;5031027;28;20025;-49
2021/08/28 06:08:22;;;;;;;3.63;3.33;;;;;;;15.26;70.92;100770.63;5028420;28;20093;-49
2021/08/28 06:10:48;;;;;;;3.70;3.40;;;;;;;15.26;71.01;100762.66;5030663;28;20017;-49
2021/08/28 06:13:14;;;;;;;4.00;3.60;;;;;;;15.27;70.99;100764.41;5028664;28;20824;-49
2021/08/28 06:15:40;;;;;;;3.90;3.50;;;;;;;15.26;71.10;100761.78;5030461;28;20021;-49
2021/08/28 06:18:06;;;;;;;4.28;3.88;;;;;;;15.25;71.14;100755.59;5028131;28;20499;-49
2021/08/28 06:20:32;;;;;;;4.50;4.10;;;;;;;15.27;70.90;100766.16;5028232;28;20034;-49
2021/08/28 06:22:57;;;;;;;3.72;3.42;;;;;;;15.26;71.16;100767.97;5029109;28;20032;-49
2021/08/28 06:25:23;;;;;;;4.22;3.60;;;;;;;15.25;71.13;100768.00;5011350;28;20028;-49
2021/08/28 06:27:49;;;;;;;4.40;4.00;;;;;;;15.26;71.19;100764.44;5029812;28;20014;-49
2021/08/28 06:30:15;;;;;;;5.20;4.45;;;;;;;15.24;71.12;100768.94;5013394;28;20029;-49
2021/08/28 06:32:41;;;;;;;4.70;4.30;;;;;;;15.25;71.03;100760.03;5031188;28;20021;-49
2021/08/28 06:35:08;;;;;;;4.57;4.10;;;;;;;15.24;71.19;100769.78;5027563;28;20095;-49
2021/08/28 06:37:34;;;;;;;4.93;4.50;;;;;;;15.24;71.20;100766.28;5030861;28;20492;-49
2021/08/28 06:39:59;;;;;;;4.72;4.32;;;;;;;15.24;71.32;100780.41;5028080;28;20021;-49
2021/08/28 06:42:25;;;;;;;5.40;4.45;;;;;;;15.25;71.36;100776.84;5011518;28;20079;-49
2021/08/28 06:44:51;;;;;;;4.97;4.57;;;;;;;15.24;71.28;100791.03;5028147;28;20082;-49
2021/08/28 06:47:17;;;;;;;5.55;4.72;;;;;;;15.23;71.20;100789.31;5028720;28;20029;-49
2021/08/28 06:49:43;;;;;;;5.32;4.63;;;;;;;15.23;71.37;100789.31;5029870;28;20045;-49
2021/08/28 06:52:08;;;;;;;5.65;5.07;;;;;;;15.21;71.41;100796.44;5012942;28;20040;-49
2021/08/28 06:54:34;;;;;;;5.43;4.90;;;;;;;15.23;71.39;100797.28;5029848;28;20035;-49
2021/08/28 06:57:00;;;;;;;4.93;4.43;;;;;;;15.24;71.13;100793.69;5030717;28;20389;-49
2021/08/28 06:59:26;;;;;;;5.25;4.75;;;;;;;15.23;71.18;100793.75;5030007;28;20092;-49
2021/08/28 07:01:51;;;;;;;5.93;4.88;;;;;;;15.23;71.12;100799.94;5030779;28;20017;-49
2021/08/28 07:04:17;;;;;;;5.60;4.95;;;;;;;15.20;71.75;100794.69;5019769;28;20060;-49
2021/08/28 07:06:43;;;;;;;5.43;4.93;;;;;;;15.22;71.31;100797.31;5027486;28;20017;-49
2021/08/28 07:09:09;;;;;;;5.78;5.28;;;;;;;15.22;71.34;100800.84;5027341;28;20033;-49
2021/08/28 07:11:35;;;;;;;5.25;4.75;;;;;;;15.22;71.42;100802.63;5028975;28;20033;-49
2021/08/28 07:14:00;;;;;;;5.38;4.88;;;;;;;15.24;71.28;100800.81;5029773;28;20048;-49
2021/08/28 07:16:26;;;;;;;6.80;4.63;;;;;;;15.20;71.60;100802.66;5030499;28;20025;-49
2021/08/28 07:18:52;;;;;;;5.95;5.38;;;;;;;15.20;71.42;100800.00;5029630;28;20392;-49
2021/08/28 07:21:19;;;;;;;5.20;4.65;;;;;;;15.20;71.47;100801.81;5024567;28;20026;-49
2021/08/28 07:23:46;;;;;;;5.10;4.70;;;;;;;15.21;71.56;100807.06;5012280;28;20484;-49
2021/08/28 07:26:13;;;;;;;5.43;4.93;;;;;;;15.19;71.71;100808.91;5030436;28;20470;-49
2021/08/28 07:28:39;;;;;;;4.85;4.35;;;;;;;15.18;71.86;100812.47;5030469;28;20055;-49
2021/08/28 07:31:05;;;;;;;5.22;4.78;;;;;;;15.19;71.55;100808.03;5031554;28;20021;-49
2021/08/28 07:33:32;;;;;;;5.35;4.85;;;;;;;15.19;71.47;100808.91;5028593;28;20025;-48
2021/08/28 07:35:58;;;;;;;6.72;4.80;;;;;;;15.20;71.60;100805.31;5029046;28;20102;-49
2021/08/28 07:38:23;;;;;;;5.47;4.97;;;;;;;15.19;71.50;100806.25;5011706;28;20072;-49
2021/08/28 07:40:49;;;;;;;5.13;4.40;;;;;;;15.20;71.34;100810.63;5030300;28;20520;-49
2021/08/28 07:43:15;;;;;;;4.60;4.20;;;;;;;15.21;71.38;100812.38;5027257;28;20501;-49
2021/08/28 07:45:41;;;;;;;5.35;4.85;;;;;;;15.21;71.35;100809.72;5029997;28;20032;-49
2021/08/28 07:48:07;;;;;;;5.20;4.70;;;;;;;15.21;71.34;100812.38;5027957;28;20488;-50
2021/08/28 07:50:32;;;;;;;5.30;4.72;;;;;;;15.21;71.33;100811.53;5030029;28;20036;-48
2021/08/28 07:52:58;;;;;;;4.78;4.38;;;;;;;15.18;71.52;100811.59;5007398;28;20018;-48
2021/08/28 07:55:25;;;;;;;5.00;4.50;;;;;;;15.19;71.63;100813.34;5030317;28;20096;-48
2021/08/28 07:57:51;;;;;;;4.65;4.25;;;;;;;15.20;71.45;100812.44;5026503;28;20032;-48
2021/08/28 08:00:17;;;;;;;5.72;4.95;;;;;;;15.20;71.43;100818.63;5025693;28;20026;-48
2021/08/28 08:02:43;;;;;;;5.10;4.60;;;;;;;15.20;71.33;100815.94;5024660;28;20022;-48
2021/08/28 08:05:09;;;;;;;4.65;4.28;;;;;;;15.18;71.44;100812.47;5024167;28;20030;-48
2021/08/28 08:07:35;;;;;;;5.13;4.70;;;;;;;15.16;71.43;100819.59;5026294;28;20072;-48
2021/08/28 08:10:01;;;;;;;5.07;4.68;;;;;;;15.18;71.70;100819.56;5007616;28;20021;-48
2021/08/28 08:12:27;;;;;;;5.28;4.85;;;;;;;15.15;72.04;100817.88;5029743;28;20022;-49
2021/08/28 08:14:53;;;;;;;5.53;4.75;;;;;;;15.16;71.97;100824.91;5028014;28;20028;-48
2021/08/28 08:17:18;;;;;;;4.88;4.45;;;;;;;15.14;72.04;100816.13;5029873;28;20107;-48
2021/08/28 08:19:44;;;;;;;5.10;4.60;;;;;;;15.18;71.89;100825.78;5027749;28;20026;-49
2021/08/28 08:22:10;;;;;;;5.45;4.95;;;;;;;15.17;71.57;100821.34;5030748;28;20485;-48
2021/08/28 08:24:36;;;;;;;4.90;4.50;;;;;;;15.16;71.72;100824.91;5008527;28;20033;-48
2021/08/28 08:27:02;;;;;;;5.60;5.10;;;;;;;15.18;71.55;100833.75;5029325;28;20028;-48
2021/08/28 08:29:28;;;;;;;5.15;4.65;;;;;;;15.16;71.89;100832.88;5030733;28;20032;-48
2021/08/28 08:31:54;;;;;;;5.00;4.60;;;;;;;15.18;71.64;100823.09;5031888;28;20469;-49
2021/08/28 08:34:23;;;;;;;5.47;4.97;;;;;;;15.18;71.68;100832.84;5028120;28;20029;-49
2021/08/28 08:36:49;;;;;;;6.20;5.05;;;;;;;15.14;72.19;100821.44;5028014;28;20028;-48
2021/08/28 08:39:15;;;;;;;5.45;4.95;;;;;;;15.14;72.07;100829.41;5032568;28;20026;-48
2021/08/28 08:41:44;;;;;;;5.50;4.97;;;;;;;15.13;72.06;100827.66;5026427;28;20014;-49
2021/08/28 08:44:11;;;;;;;5.63;5.03;;;;;;;15.16;71.99;100830.22;5031494;28;20124;-48
2021/08/28 08:46:38;;;;;;;5.15;4.72;;;;;;;15.17;71.80;100837.28;5022743;28;20087;-48
2021/08/28 08:49:05;;;;;;;6.32;5.68;;;;;;;15.19;72.26;100829.28;5026925;28;20446;-49
2021/08/28 08:51:37;;;;;;;6.70;6.05;;;;;;;15.18;71.75;100836.41;5011636;28;20025;-48
2021/08/28 08:54:03;;;;;;;;;;;;;;;15.17;72.13;100837.28;5026439;28;20021;-49
2021/08/28 08:56:29;;;;;;;5.95;5.30;;;;;;;15.16;71.83;100834.66;5029915;28;19913;-48
2021/08/28 08:58:55;;;;;;;6.20;5.32;;;;;;;15.17;71.90;100831.97;5027154;28;20443;-49
2021/08/28 09:01:21;;;;;;;5.80;5.30;;;;;;;15.18;71.90;100832.84;5016268;28;20473;-49
2021/08/28 09:03:47;;;;;;;6.40;5.80;;;;;;;15.20;71.48;100831.91;5032225;28;20079;-48
2021/08/28 09:06:13;;;;;;;5.40;4.90;;;;;;;15.20;71.80;100836.34;5028626;28;20025;-48
2021/08/28 09:08:39;;;;;;;5.45;5.05;;;;;;;15.17;71.72;100831.97;5026752;28;20041;-48
2021/08/28 09:11:31;;;;;;;5.32;4.82;;;;;;;15.16;72.00;100837.31;5029292;28;20448;-48
2021/08/28 09:14:21;;;;;;;5.80;5.18;;;;;;;15.18;71.42;100838.16;5024963;28;20381;-49
2021/08/28 09:16:48;;;;;;;8.13;5.37;;;;;;;15.16;72.00;100835.53;5025046;28;20018;-48
2021/08/28 09:19:14;;;;;;;5.35;4.85;;;;;;;15.16;71.73;100839.97;5027591;28;20283;-48
2021/08/28 09:21:40;;;;;;;6.00;5.20;;;;;;;15.17;71.73;100845.25;5022175;28;20022;-49
2021/08/28 09:24:08;;;;;;;6.70;6.00;;;;;;;15.19;71.67;100838.13;5027149;28;20026;-49
2021/08/28 09:26:39;;;;;;;6.50;5.90;;;;;;;15.17;71.69;100841.75;5028956;28;20022;-49
2021/08/28 09:29:07;;;;;;;6.40;5.80;;;;;;;15.14;72.42;100842.69;5031393;28;20028;-49
2021/08/28 09:31:50;;;;;;;6.45;5.85;;;;;;;15.16;71.99;100832.88;5028424;28;20029;-49
2021/08/28 09:34:18;;;;;;;5.97;5.45;;;;;;;15.16;72.26;100843.50;5025591;28;20021;-49
2021/08/28 09:36:44;;;;;;;6.32;5.53;;;;;;;15.17;71.84;100847.91;5032196;28;20075;-49
2021/08/28 09:39:10;;;;;;;6.15;5.55;;;;;;;15.17;72.07;100852.38;5021932;28;20392;-49
2021/08/28 09:41:36;;;;;;;5.93;5.38;;;;;;;15.19;71.66;100850.53;5026859;28;20029;-48
2021/08/28 09:44:06;;;;;;;6.40;5.68;;;;;;;15.18;72.01;100849.69;5010178;28;20017;-49
2021/08/28 09:46:33;;;;;;;7.07;6.43;;;;;;;15.19;72.08;100847.88;5013719;28;20056;-49
2021/08/28 09:49:02;;;;;;;6.05;5.45;;;;;;;15.19;71.91;100843.44;5027832;28;20110;-48
2021/08/28 09:51:36;;;;;;;6.78;6.10;;;;;;;15.19;71.76;100834.59;5013027;28;20021;-48
2021/08/28 09:54:02;;;;;;;6.20;5.47;;;;;;;15.17;71.71;100842.59;5006768;28;20522;-49
2021/08/28 09:56:28;;;;;;;6.10;5.50;;;;;;;15.19;71.94;100845.22;5027546;28;20104;-48
2021/08/28 09:58:54;;;;;;;6.38;5.78;;;;;;;15.17;71.86;100836.44;5025714;28;20021;-48
2021/08/28 10:01:23;;;;;;;6.10;5.20;;;;;;;15.17;71.82;100847.91;5025972;28;20033;-49
2021/08/28 10:03:59;;;;;;;7.03;4.88;;;;;;;15.17;72.00;100837.28;5011462;28;20112;-49
2021/08/28 10:06:25;;;;;;;6.50;5.90;;;;;;;15.19;71.79;100845.22;5026136;28;20021;-48
2021/08/28 10:08:52;;;;;;;5.50;5.00;;;;;;;15.17;71.78;100837.28;5026402;28;20036;-48
2021/08/28 10:11:20;;;;;;;4.97;4.47;;;;;;;15.17;71.68;100837.28;5008629;28;20028;-48
2021/08/28 10:13:47;;;;;;;5.68;5.07;;;;;;;15.18;71.76;100844.38;5031198;28;20548;-49
2021/08/28 10:16:15;;;;;;;6.05;5.32;;;;;;;15.17;71.78;100839.94;5008217;28;20041;-49
2021/08/28 10:18:44;;;;;;;5.53;4.97;;;;;;;15.19;71.85;100838.13;5031674;28;20100;-49
2021/08/28 10:21:11;;;;;;;5.60;5.10;;;;;;;15.19;71.98;100829.28;5029540;28;20354;-48
2021/08/28 10:23:37;;;;;;;5.78;5.28;;;;;;;15.16;71.93;100830.22;5028254;28;20034;-48
2021/08/28 10:26:05;;;;;;;5.28;4.78;;;;;;;15.17;71.91;100831.13;5031530;28;20052;-49
2021/08/28 10:28:31;;;;;;;5.38;4.90;;;;;;;15.17;71.80;100837.28;5029320;28;20025;-49
2021/08/28 10:30:56;;;;;;;5.00;4.60;;;;;;;15.20;71.73;100842.53;5010314;28;20026;-49
2021/08/28 10:33:22;;;;;;;5.18;4.68;;;;;;;15.20;71.63;100842.53;5030977;28;20380;-49
2021/08/28 10:35:48;;;;;;;4.63;4.13;;;;;;;15.20;72.03;100846.97;5010456;28;20032;-49
2021/08/28 10:38:14;;;;;;;5.32;4.90;;;;;;;15.16;72.28;100847.94;5033503;28;20021;-49
2021/08/28 10:40:42;;;;;;;4.78;4.30;;;;;;;15.19;71.78;100835.47;5031261;28;20044;-49
2021/08/28 10:43:09;;;;;;;4.75;4.35;;;;;;;15.19;71.95;100834.59;5007267;28;20025;-48
2021/08/28 10:45:37;;;;;;;4.88;4.47;;;;;;;15.19;71.67;100835.47;5012654;28;20476;-49
2021/08/28 10:48:09;;;;;;;4.80;4.38;;;;;;;15.21;71.75;100828.31;5034380;28;20037;-48
2021/08/28 10:50:44;;;;;;;4.90;4.50;;;;;;;15.19;71.80;100819.53;5031073;28;20064;-49
2021/08/28 10:53:11;;;;;;;4.22;3.83;;;;;;;15.22;71.67;100827.44;5030976;28;20021;-49
2021/08/28 10:55:38;;;;;;;4.78;4.32;;;;;;;15.21;72.28;100828.31;5030207;28;20024;-49
2021/08/28 10:58:21;;;;;;;4.05;3.75;;;;;;;15.21;72.37;100820.34;5027762;28;20036;-49
2021/08/28 11:00:49;;;;;;;4.53;4.13;;;;;;;15.20;72.06;100821.28;5030859;28;20072;-49
2021/08/28 11:03:35;;;;;;;4.50;4.00;;;;;;;15.22;71.70;100824.78;5028660;28;20021;-51
2021/08/28 11:06:16;;;;;;;4.90;4.40;;;;;;;15.21;71.61;100830.97;5028090;28;20033;-49
2021/08/28 11:08:49;;;;;;;4.10;3.78;;;;;;;15.22;71.73;100830.09;5023506;28;20036;-49
2021/08/28 11:11:38;;;;;;;4.25;3.92;;;;;;;15.22;71.80;100830.09;5030392;28;20025;-49
2021/08/28 11:14:09;;;;;;;4.40;3.95;;;;;;;15.25;71.93;100834.44;5030525;28;20024;-49
2021/08/28 11:16:44;;;;;;;4.53;4.13;;;;;;;15.25;72.12;100835.28;5026536;28;20033;-49
2021/08/28 11:19:12;;;;;;;4.80;4.30;;;;;;;15.25;71.93;100829.97;5026924;28;20028;-49
2021/08/28 11:21:46;;;;;;;4.57;4.20;;;;;;;15.27;71.93;100822.84;5027239;28;20022;-50
2021/08/28 11:24:20;;;;;;;4.70;4.30;;;;;;;15.25;72.16;100831.78;5027313;28;20033;-49
2021/08/28 11:26:50;;;;;;;4.65;4.28;;;;;;;15.25;72.38;100818.50;5026254;28;20435;-49
2021/08/28 11:29:24;;;;;;;4.53;4.13;;;;;;;15.27;71.95;100816.66;5027625;28;20025;-49